Time;durP1;ratioP1;P1;durP2;ratioP2;P2;SDS_P1;SDS_P2;PMS_P1;PMS_P2;Temp;Humidity;BMP_temperature;BMP_pressure;BME280_temperature;BME280_humidity;BME280_pressure;Samples;Min_cycle;Max_cycle;Signal;HPM_P1;HPM_P2
2021/07/10 00:00:42;;;;;;;25.97;5.07;;;14.30;99.90;;;;;;5084981;28;20159;-85
2021/07/10 00:03:08;;;;;;;10.27;4.97;;;14.50;99.90;;;;;;5085421;28;20152;-85
2021/07/10 00:05:34;;;;;;;6.27;5.40;;;14.50;99.90;;;;;;5084583;28;20159;-85
2021/07/10 00:08:00;;;;;;;13.27;5.37;;;14.50;99.90;;;;;;5078728;28;20431;-85
2021/07/10 00:10:27;;;;;;;16.33;5.00;;;14.50;99.90;;;;;;5078525;28;20386;-85
2021/07/10 00:12:53;;;;;;;12.87;4.60;;;14.50;99.90;;;;;;5078918;28;20389;-85
2021/07/10 00:15:22;;;;;;;9.00;5.13;;;14.50;99.90;;;;;;5079282;28;20481;-85
2021/07/10 00:17:50;;;;;;;7.90;5.40;;;14.70;99.90;;;;;;5094221;28;20405;-85
2021/07/10 00:20:17;;;;;;;15.03;5.97;;;14.60;99.90;;;;;;5078108;28;20582;-85
2021/07/10 00:22:43;;;;;;;20.43;5.93;;;14.70;99.90;;;;;;5078112;28;20386;-85
2021/07/10 00:25:11;;;;;;;14.90;5.10;;;14.70;99.90;;;;;;5078748;28;20502;-85
2021/07/10 00:27:38;;;;;;;12.57;5.90;;;14.60;99.90;;;;;;5083897;28;20390;-83
2021/07/10 00:30:06;;;;;;;11.33;7.60;;;14.60;99.90;;;;;;5089545;28;20421;-84
2021/07/10 00:32:32;;;;;;;7.50;6.63;;;14.70;99.90;;;;;;5079381;28;20422;-85
2021/07/10 00:34:58;;;;;;;13.30;6.27;;;14.50;99.90;;;;;;5078253;28;20413;-87
2021/07/10 00:37:24;;;;;;;23.87;6.20;;;14.40;99.90;;;;;;5078980;28;20398;-85
2021/07/10 00:39:49;;;;;;;17.83;5.83;;;14.50;99.90;;;;;;5078542;28;20191;-85
2021/07/10 00:42:17;;;;;;;9.67;5.63;;;14.50;99.90;;;;;;5078279;28;20218;-85
2021/07/10 00:44:43;;;;;;;7.80;6.47;;;14.40;99.90;;;;;;5078696;28;20224;-85
2021/07/10 00:47:09;;;;;;;9.30;6.00;;;14.60;99.90;;;;;;5078158;28;20397;-85
2021/07/10 00:49:35;;;;;;;7.80;6.50;;;14.40;99.90;;;;;;5077967;28;20692;-85
2021/07/10 00:52:01;;;;;;;6.67;5.97;;;14.50;99.90;;;;;;5078424;28;20164;-85
2021/07/10 00:54:27;;;;;;;8.90;6.03;;;14.40;99.90;;;;;;5078212;28;20398;-85
2021/07/10 00:56:58;;;;;;;11.50;8.33;;;14.50;99.90;;;;;;5078355;28;20156;-85
2021/07/10 00:59:27;;;;;;;11.30;9.13;;;14.50;99.90;;;;;;5078345;28;20674;-85
2021/07/10 01:01:54;;;;;;;6.97;6.27;;;14.50;99.90;;;;;;5079160;28;20426;-85
2021/07/10 01:04:20;;;;;;;9.43;6.87;;;14.50;99.90;;;;;;5082043;28;20473;-85
2021/07/10 01:06:47;;;;;;;8.67;6.50;;;14.50;99.90;;;;;;5078333;28;20445;-85
2021/07/10 01:09:17;;;;;;;7.23;6.07;;;14.50;99.90;;;;;;5077884;28;20431;-85
2021/07/10 01:11:43;;;;;;;7.37;5.97;;;14.60;99.90;;;;;;5078777;28;20767;-85
2021/07/10 01:14:09;;;;;;;6.03;5.30;;;14.50;99.90;;;;;;5077825;28;20448;-85
2021/07/10 01:16:35;;;;;;;7.27;6.57;;;14.50;99.90;;;;;;5078418;28;20393;-85
2021/07/10 01:19:01;;;;;;;7.70;6.00;;;14.60;99.90;;;;;;5077831;28;20576;-85
2021/07/10 01:21:27;;;;;;;7.23;6.33;;;14.60;99.90;;;;;;5077658;28;20429;-85
2021/07/10 01:23:52;;;;;;;6.53;5.60;;;14.60;99.90;;;;;;5077976;28;20166;-85
2021/07/10 01:26:20;;;;;;;7.07;6.37;;;14.70;99.90;;;;;;5077636;28;20492;-85
2021/07/10 01:28:46;;;;;;;8.20;6.17;;;14.80;99.90;;;;;;5078313;28;20175;-85
2021/07/10 01:31:12;;;;;;;6.50;5.90;;;14.60;99.90;;;;;;5081686;28;20400;-85
2021/07/10 01:33:38;;;;;;;9.37;5.77;;;14.50;99.90;;;;;;5081533;28;20398;-85
2021/07/10 01:36:05;;;;;;;10.60;6.80;;;14.40;99.90;;;;;;5081176;28;20430;-85
2021/07/10 01:38:31;;;;;;;23.87;6.07;;;14.70;99.90;;;;;;5081065;28;20452;-85
2021/07/10 01:40:57;;;;;;;12.33;6.50;;;14.60;99.90;;;;;;5080723;28;20386;-84
2021/07/10 01:43:23;;;;;;;6.50;5.83;;;14.70;99.90;;;;;;5080080;28;20416;-85
2021/07/10 01:45:49;;;;;;;8.77;6.13;;;14.70;99.90;;;;;;5080101;28;20750;-85
2021/07/10 01:48:15;;;;;;;13.40;6.87;;;14.80;99.90;;;;;;5080591;28;20394;-85
2021/07/10 01:50:43;;;;;;;11.70;6.80;;;14.70;99.90;;;;;;5080439;28;20174;-85
2021/07/10 01:53:12;;;;;;;10.67;6.03;;;14.60;99.90;;;;;;5080694;28;20394;-85
2021/07/10 01:55:38;;;;;;;17.63;6.07;;;14.50;99.90;;;;;;5080329;28;20386;-85
2021/07/10 01:58:04;;;;;;;8.03;6.07;;;14.60;99.90;;;;;;5080716;28;20368;-85
2021/07/10 02:00:34;;;;;;;5.87;5.07;;;14.60;99.90;;;;;;5095994;28;20212;-83
2021/07/10 02:03:01;;;;;;;8.77;5.57;;;14.50;99.90;;;;;;5080511;28;20393;-85
2021/07/10 02:05:28;;;;;;;5.37;4.47;;;14.40;99.90;;;;;;5080449;28;20756;-85
2021/07/10 02:07:57;;;;;;;16.20;5.47;;;14.40;99.90;;;;;;5080483;28;20443;-84
2021/07/10 02:10:24;;;;;;;14.63;6.00;;;14.40;99.90;;;;;;5080277;28;20576;-85
2021/07/10 02:12:52;;;;;;;17.23;7.60;;;14.40;99.90;;;;;;5080355;28;20418;-84
2021/07/10 02:15:18;;;;;;;18.43;7.17;;;14.30;99.90;;;;;;5080192;28;20480;-85
2021/07/10 02:17:44;;;;;;;8.77;7.50;;;14.40;99.90;;;;;;5080133;28;20409;-85
2021/07/10 02:20:14;;;;;;;18.70;7.60;;;14.40;99.90;;;;;;5080087;28;20464;-85
2021/07/10 02:22:40;;;;;;;10.93;7.70;;;14.40;99.90;;;;;;5078244;28;20933;-85
2021/07/10 02:25:09;;;;;;;13.10;7.60;;;14.60;99.90;;;;;;5080118;28;20367;-85
2021/07/10 02:27:35;;;;;;;10.63;8.17;;;14.70;99.90;;;;;;5080187;28;20454;-85
2021/07/10 02:30:04;;;;;;;10.20;8.60;;;14.70;99.90;;;;;;5079269;28;20434;-85
2021/07/10 02:32:29;;;;;;;11.07;8.20;;;14.80;99.90;;;;;;5079735;28;20390;-86
2021/07/10 02:34:55;;;;;;;9.90;8.57;;;14.70;99.90;;;;;;5079845;28;20401;-86
2021/07/10 02:37:21;;;;;;;14.23;6.97;;;14.70;99.90;;;;;;5079806;28;20167;-85
2021/07/10 02:39:47;;;;;;;23.27;10.23;;;14.50;99.90;;;;;;5079830;28;20586;-86
2021/07/10 02:42:12;;;;;;;14.60;11.03;;;14.70;99.90;;;;;;5079623;28;20302;-86
2021/07/10 02:44:38;;;;;;;13.97;10.20;;;14.80;99.90;;;;;;5079515;28;20152;-85
2021/07/10 02:47:04;;;;;;;44.23;8.20;;;14.90;99.90;;;;;;5080405;28;20155;-86
2021/07/10 02:49:30;;;;;;;19.67;10.00;;;14.60;99.90;;;;;;5079929;28;20493;-86
2021/07/10 02:51:56;;;;;;;13.93;8.10;;;14.70;99.90;;;;;;5044684;28;20406;-86
2021/07/10 02:54:21;;;;;;;15.10;8.87;;;14.70;99.90;;;;;;5080208;28;20159;-86
2021/07/10 02:56:47;;;;;;;19.80;7.37;;;14.50;99.90;;;;;;5079828;28;20160;-86
2021/07/10 02:59:13;;;;;;;13.00;7.30;;;14.70;99.90;;;;;;5080000;28;20226;-85
2021/07/10 03:01:39;;;;;;;10.87;7.07;;;14.70;99.90;;;;;;5084257;28;20162;-85
2021/07/10 03:04:04;;;;;;;9.43;7.10;;;14.60;99.90;;;;;;5090046;28;20166;-83
2021/07/10 03:06:30;;;;;;;11.63;7.77;;;14.50;99.90;;;;;;5089203;28;20239;-86
2021/07/10 03:08:56;;;;;;;17.20;10.20;;;14.60;99.90;;;;;;5103867;28;20225;-86
2021/07/10 03:11:22;;;;;;;17.80;9.33;;;14.70;99.90;;;;;;5080818;28;20164;-86
2021/07/10 03:13:48;;;;;;;23.70;9.57;;;14.70;99.90;;;;;;5079647;28;20488;-86
2021/07/10 03:16:14;;;;;;;15.40;8.57;;;14.60;99.90;;;;;;5080376;28;20168;-86
2021/07/10 03:18:39;;;;;;;17.90;8.40;;;14.70;99.90;;;;;;5080096;28;20428;-86
2021/07/10 03:21:05;;;;;;;11.03;7.83;;;14.60;99.90;;;;;;5080875;28;20166;-86
2021/07/10 03:23:31;;;;;;;13.57;8.43;;;14.50;99.90;;;;;;5094869;28;20159;-83
2021/07/10 03:25:57;;;;;;;22.60;10.50;;;14.50;99.90;;;;;;5098375;28;20179;-83
2021/07/10 03:28:23;;;;;;;14.27;9.60;;;14.50;99.90;;;;;;5098304;28;20398;-85
2021/07/10 03:30:51;;;;;;;24.53;9.67;;;14.50;99.90;;;;;;5098746;28;20214;-84
2021/07/10 03:33:18;;;;;;;16.87;9.23;;;14.30;99.90;;;;;;5096126;28;20176;-85
2021/07/10 03:35:44;;;;;;;39.00;9.40;;;14.50;99.90;;;;;;5079896;28;20397;-86
2021/07/10 03:38:10;;;;;;;14.20;9.43;;;14.50;99.90;;;;;;5078799;28;20368;-86
2021/07/10 03:40:36;;;;;;;14.87;9.70;;;14.50;99.90;;;;;;5079065;28;20164;-86
2021/07/10 03:43:01;;;;;;;23.47;9.70;;;14.50;99.90;;;;;;5078096;28;20683;-85
2021/07/10 03:45:27;;;;;;;18.30;10.33;;;14.40;99.90;;;;;;5079134;28;20155;-86
2021/07/10 03:47:53;;;;;;;14.93;9.30;;;14.50;99.90;;;;;;5078904;28;20170;-86
2021/07/10 03:50:20;;;;;;;16.30;10.87;;;14.60;99.90;;;;;;5078691;28;20826;-86
2021/07/10 03:52:46;;;;;;;18.57;10.30;;;14.70;99.90;;;;;;5078456;28;20163;-85
2021/07/10 03:55:12;;;;;;;29.27;9.20;;;14.70;99.90;;;;;;5079112;28;20488;-86
2021/07/10 03:57:39;;;;;;;16.00;9.63;;;14.70;99.90;;;;;;5078426;28;20448;-86
2021/07/10 04:00:10;;;;;;;16.80;10.20;;;14.80;99.90;;;;;;5077579;28;20437;-86
2021/07/10 04:02:36;;;;;;;14.33;9.30;;;14.70;99.90;;;;;;5079977;28;20438;-86
2021/07/10 04:05:04;;;;;;;12.27;8.47;;;14.60;99.90;;;;;;5078359;28;20891;-86
2021/07/10 04:07:32;;;;;;;20.50;9.27;;;14.50;99.90;;;;;;5078330;28;20389;-85
2021/07/10 04:10:00;;;;;;;12.60;9.90;;;14.40;99.90;;;;;;5085745;28;20455;-83
2021/07/10 04:12:26;;;;;;;16.70;10.43;;;14.30;99.90;;;;;;5092096;28;20390;-84
2021/07/10 04:14:52;;;;;;;13.97;9.77;;;14.30;99.90;;;;;;5082445;28;20394;-85
2021/07/10 04:17:18;;;;;;;10.27;9.00;;;14.30;99.90;;;;;;5078255;28;20402;-86
2021/07/10 04:19:46;;;;;;;13.17;8.87;;;14.20;99.90;;;;;;5079114;28;20255;-85
2021/07/10 04:22:11;;;;;;;15.30;8.00;;;14.50;99.90;;;;;;5079183;28;20398;-85
2021/07/10 04:24:37;;;;;;;12.30;9.17;;;14.70;99.90;;;;;;5078967;28;20869;-86
2021/07/10 04:27:03;;;;;;;17.33;10.60;;;14.80;99.90;;;;;;5077309;28;20171;-86
2021/07/10 04:29:29;;;;;;;8.60;7.70;;;14.80;99.90;;;;;;5078775;28;20174;-85
2021/07/10 04:31:55;;;;;;;11.90;8.53;;;14.70;99.90;;;;;;5078774;28;20394;-86
2021/07/10 04:34:21;;;;;;;13.17;7.73;;;14.70;99.90;;;;;;5077094;28;20233;-85
2021/07/10 04:36:46;;;;;;;9.60;8.60;;;14.70;99.90;;;;;;5078040;28;20432;-85
2021/07/10 04:39:12;;;;;;;12.70;8.93;;;14.80;99.90;;;;;;5078560;28;20205;-86
2021/07/10 04:41:38;;;;;;;11.23;7.07;;;14.70;99.90;;;;;;5077793;28;20163;-86
2021/07/10 04:44:04;;;;;;;10.80;8.70;;;14.60;99.90;;;;;;5077861;28;20280;-85
2021/07/10 04:46:30;;;;;;;12.87;8.47;;;14.60;99.90;;;;;;5085115;28;20155;-85
2021/07/10 04:48:55;;;;;;;11.37;7.93;;;14.70;99.90;;;;;;5102216;28;20191;-84
2021/07/10 04:51:21;;;;;;;11.23;8.87;;;14.70;99.90;;;;;;5085360;28;20168;-87
2021/07/10 04:53:47;;;;;;;11.70;7.83;;;14.90;99.90;;;;;;5078682;28;20500;-86
2021/07/10 04:56:13;;;;;;;15.63;9.50;;;15.00;99.90;;;;;;5078576;28;20309;-85
2021/07/10 04:58:38;;;;;;;11.00;9.47;;;15.00;99.90;;;;;;5082718;28;20198;-85
2021/07/10 05:01:04;;;;;;;8.43;7.43;;;14.90;99.90;;;;;;5080883;28;20163;-86
2021/07/10 05:03:30;;;;;;;10.67;8.03;;;15.00;99.90;;;;;;5078322;28;20160;-86
2021/07/10 05:05:56;;;;;;;10.13;8.93;;;14.90;99.90;;;;;;5081517;28;20166;-86
2021/07/10 05:08:22;;;;;;;8.90;6.93;;;15.10;99.90;;;;;;5081362;28;20191;-86
2021/07/10 05:10:47;;;;;;;10.87;8.90;;;15.00;99.90;;;;;;5081822;28;20159;-86
2021/07/10 05:13:13;;;;;;;10.93;9.67;;;15.10;99.90;;;;;;5082561;28;20168;-86
2021/07/10 05:15:39;;;;;;;20.80;10.40;;;14.90;99.90;;;;;;5082038;28;20159;-86
2021/07/10 05:18:06;;;;;;;10.03;8.43;;;15.00;99.90;;;;;;5063951;28;20162;-85
2021/07/10 05:20:32;;;;;;;12.10;9.53;;;14.90;99.90;;;;;;5081595;28;20518;-86
2021/07/10 05:22:58;;;;;;;12.73;9.23;;;15.10;99.90;;;;;;5081720;28;20451;-85
2021/07/10 05:25:23;;;;;;;12.30;9.80;;;15.10;99.90;;;;;;5081940;28;20389;-86
2021/07/10 05:27:49;;;;;;;11.70;9.57;;;15.20;99.90;;;;;;5081453;28;20219;-86
2021/07/10 05:30:17;;;;;;;12.57;9.10;;;15.30;99.90;;;;;;5082061;28;20530;-85
2021/07/10 05:32:43;;;;;;;11.23;8.60;;;15.20;99.90;;;;;;5082765;28;20531;-85
2021/07/10 05:35:11;;;;;;;11.77;9.80;;;15.20;99.90;;;;;;5087605;28;20397;-84
2021/07/10 05:37:40;;;;;;;14.60;11.00;;;15.00;99.90;;;;;;5088286;28;20744;-85
2021/07/10 05:40:06;;;;;;;11.20;9.87;;;15.20;99.90;;;;;;5088658;28;20441;-85
2021/07/10 05:42:32;;;;;;;12.83;8.80;;;15.40;99.90;;;;;;5083001;28;20949;-85
2021/07/10 05:45:01;;;;;;;14.70;11.10;;;15.60;99.90;;;;;;5081860;28;20469;-85
2021/07/10 05:47:27;;;;;;;14.57;10.90;;;15.40;99.90;;;;;;5081823;28;20446;-85
2021/07/10 05:49:53;;;;;;;10.43;9.43;;;15.40;99.90;;;;;;5046284;28;20550;-87
2021/07/10 05:52:18;;;;;;;11.03;9.03;;;15.50;99.90;;;;;;5080560;28;20232;-86
2021/07/10 05:54:44;;;;;;;11.60;10.20;;;15.70;99.90;;;;;;5063604;28;20160;-86
2021/07/10 05:57:10;;;;;;;11.30;10.10;;;15.80;99.90;;;;;;5082182;28;20598;-85
2021/07/10 05:59:36;;;;;;;11.83;10.53;;;16.00;99.90;;;;;;5081990;28;20518;-86
2021/07/10 06:02:06;;;;;;;9.13;8.23;;;15.70;99.90;;;;;;5082956;28;20611;-86
2021/07/10 06:04:34;;;;;;;12.80;9.03;;;15.60;99.90;;;;;;5064465;28;20163;-86
2021/07/10 06:07:00;;;;;;;10.00;9.00;;;15.50;99.90;;;;;;5090923;28;20398;-84
2021/07/10 06:09:26;;;;;;;12.63;9.77;;;15.80;99.90;;;;;;5096216;28;20433;-83
2021/07/10 06:11:51;;;;;;;10.70;9.13;;;15.90;99.90;;;;;;5097292;28;20410;-85
2021/07/10 06:14:18;;;;;;;14.07;9.93;;;15.60;99.90;;;;;;5097548;28;20163;-83
2021/07/10 06:16:44;;;;;;;15.17;10.40;;;15.60;99.90;;;;;;5081749;28;20167;-85
2021/07/10 06:19:10;;;;;;;11.60;10.30;;;15.60;99.90;;;;;;5062794;28;20945;-85
2021/07/10 06:21:36;;;;;;;11.87;10.30;;;15.60;99.90;;;;;;5080744;28;20390;-85
2021/07/10 06:24:02;;;;;;;10.93;9.80;;;15.60;99.90;;;;;;5080926;28;20163;-86
2021/07/10 06:26:28;;;;;;;11.13;10.00;;;15.60;99.90;;;;;;5079955;28;20159;-85
2021/07/10 06:28:54;;;;;;;10.90;9.50;;;15.70;99.90;;;;;;5080592;28;20394;-85
2021/07/10 06:31:20;;;;;;;12.43;10.53;;;15.60;99.90;;;;;;5080604;28;20553;-85
2021/07/10 06:33:47;;;;;;;14.17;10.47;;;15.70;99.90;;;;;;5081272;28;20167;-86
2021/07/10 06:36:14;;;;;;;13.13;10.03;;;15.60;99.90;;;;;;5080022;28;20877;-86
2021/07/10 06:38:39;;;;;;;10.57;9.20;;;15.70;99.90;;;;;;5062221;28;20448;-85
2021/07/10 06:41:05;;;;;;;13.10;10.00;;;15.70;99.90;;;;;;5080474;28;20724;-85
2021/07/10 06:43:31;;;;;;;12.60;9.83;;;15.70;99.90;;;;;;5080032;28;20650;-85
2021/07/10 06:45:57;;;;;;;9.30;8.00;;;15.50;99.90;;;;;;5081132;28;20520;-86
2021/07/10 06:48:23;;;;;;;13.23;9.90;;;15.60;99.90;;;;;;5080693;28;20163;-86
2021/07/10 06:50:49;;;;;;;13.07;9.90;;;15.60;99.90;;;;;;5080735;28;20170;-86
2021/07/10 06:53:21;;;;;;;12.17;10.87;;;15.50;99.90;;;;;;5080284;28;20484;-86
2021/07/10 06:55:49;;;;;;;10.60;9.50;;;15.50;99.90;;;;;;5079985;28;20160;-85
2021/07/10 06:58:15;;;;;;;12.30;10.67;;;15.60;99.90;;;;;;5079963;28;20459;-85
2021/07/10 07:00:41;;;;;;;14.10;10.17;;;15.50;99.90;;;;;;5080499;28;20429;-86
2021/07/10 07:03:07;;;;;;;13.10;10.53;;;15.60;99.90;;;;;;5083075;28;20400;-85
2021/07/10 07:05:33;;;;;;;12.97;9.87;;;15.60;99.90;;;;;;5063489;28;20163;-86
2021/07/10 07:07:58;;;;;;;12.87;11.13;;;15.80;99.90;;;;;;5080769;28;20482;-86
2021/07/10 07:10:24;;;;;;;13.57;11.30;;;15.70;99.90;;;;;;5062537;28;20224;-86
2021/07/10 07:12:50;;;;;;;11.83;10.50;;;15.80;99.90;;;;;;5045995;28;20242;-86
2021/07/10 07:15:16;;;;;;;11.00;9.80;;;15.80;99.90;;;;;;5092335;28;20173;-82
2021/07/10 07:17:44;;;;;;;20.30;11.33;;;15.80;99.90;;;;;;5096327;28;20736;-85
2021/07/10 07:20:13;;;;;;;13.40;9.43;;;16.00;99.90;;;;;;5079352;28;20456;-84
2021/07/10 07:22:43;;;;;;;12.93;10.17;;;15.90;99.90;;;;;;5097061;28;20394;-83
2021/07/10 07:25:10;;;;;;;13.00;9.70;;;15.90;99.90;;;;;;5084427;28;20476;-85
2021/07/10 07:27:36;;;;;;;14.27;10.03;;;15.90;99.90;;;;;;5082206;28;20390;-85
2021/07/10 07:30:03;;;;;;;16.77;10.10;;;16.30;99.90;;;;;;5079992;28;20404;-85
2021/07/10 07:32:29;;;;;;;10.83;9.57;;;16.20;99.90;;;;;;5046097;28;20504;-85
2021/07/10 07:34:55;;;;;;;10.70;9.70;;;16.30;99.90;;;;;;5083538;28;20394;-84
2021/07/10 07:37:21;;;;;;;11.40;10.20;;;16.40;99.90;;;;;;5097480;28;20163;-85
2021/07/10 07:39:47;;;;;;;8.60;7.60;;;16.40;99.90;;;;;;5081873;28;20484;-84
2021/07/10 07:42:15;;;;;;;11.03;9.93;;;16.50;99.90;;;;;;5079529;28;20235;-85
2021/07/10 07:44:42;;;;;;;10.50;9.50;;;16.50;99.90;;;;;;5079084;28;20401;-85
2021/07/10 07:47:10;;;;;;;14.40;9.97;;;16.50;99.90;;;;;;5078024;28;20496;-85
2021/07/10 07:49:36;;;;;;;18.47;10.10;;;16.60;99.90;;;;;;5094695;28;20452;-85
2021/07/10 07:52:03;;;;;;;10.23;9.17;;;16.80;99.90;;;;;;5079341;28;20394;-84
2021/07/10 07:54:29;;;;;;;9.63;8.50;;;16.50;99.90;;;;;;5061158;28;20160;-85
2021/07/10 07:56:57;;;;;;;9.17;8.13;;;16.50;99.90;;;;;;5079665;28;20873;-85
2021/07/10 07:59:24;;;;;;;9.23;8.20;;;16.60;99.90;;;;;;5078630;28;20187;-85
2021/07/10 08:01:49;;;;;;;10.10;9.10;;;16.60;99.90;;;;;;5077769;28;20481;-86
2021/07/10 08:04:15;;;;;;;10.07;9.10;;;16.80;99.90;;;;;;5078066;28;20448;-86
2021/07/10 08:06:41;;;;;;;12.67;10.27;;;16.70;99.90;;;;;;5077186;28;20519;-86
2021/07/10 08:09:07;;;;;;;16.63;9.90;;;16.80;99.90;;;;;;5078776;28;20264;-86
2021/07/10 08:11:32;;;;;;;14.67;12.77;;;16.70;99.90;;;;;;5094346;28;20179;-85
2021/07/10 08:13:59;;;;;;;13.40;10.90;;;16.70;99.90;;;;;;5078881;28;20155;-86
2021/07/10 08:16:25;;;;;;;15.00;11.70;;;16.80;99.90;;;;;;5079291;28;20163;-86
2021/07/10 08:18:52;;;;;;;15.47;14.03;;;17.10;99.90;;;;;;5078463;28;20455;-86
2021/07/10 08:21:18;;;;;;;15.70;14.17;;;17.10;99.90;;;;;;5078592;28;20390;-85
2021/07/10 08:23:47;;;;;;;14.90;13.40;;;16.80;99.90;;;;;;5078697;28;20436;-86
2021/07/10 08:26:13;;;;;;;14.57;13.00;;;17.20;99.90;;;;;;5060837;28;20400;-86
2021/07/10 08:28:40;;;;;;;14.27;12.87;;;17.40;99.90;;;;;;5079165;28;20406;-86
2021/07/10 08:31:06;;;;;;;14.70;11.97;;;16.90;99.90;;;;;;5079156;28;20390;-86
2021/07/10 08:33:32;;;;;;;13.13;11.83;;;17.20;99.90;;;;;;5079595;28;20385;-85
2021/07/10 08:35:58;;;;;;;16.00;13.40;;;17.20;99.90;;;;;;5079089;28;20394;-86
2021/07/10 08:38:26;;;;;;;13.90;12.47;;;17.50;99.90;;;;;;5078868;28;20447;-85
2021/07/10 08:40:52;;;;;;;15.30;13.90;;;17.80;99.90;;;;;;5083074;28;20397;-85
2021/07/10 08:43:19;;;;;;;13.50;12.20;;;17.80;99.90;;;;;;5083613;28;20980;-86
2021/07/10 08:45:47;;;;;;;12.07;10.90;;;17.70;99.90;;;;;;5083306;28;20393;-86
2021/07/10 08:48:13;;;;;;;14.10;12.40;;;17.90;99.90;;;;;;5082528;28;20388;-86
2021/07/10 08:50:40;;;;;;;13.70;12.40;;;17.90;99.90;;;;;;5063918;28;20434;-86
2021/07/10 08:53:06;;;;;;;15.90;11.57;;;18.20;99.90;;;;;;5082444;28;20398;-86
2021/07/10 08:55:33;;;;;;;14.97;11.90;;;18.20;99.90;;;;;;5082579;28;20440;-86
2021/07/10 08:57:59;;;;;;;9.90;8.83;;;18.70;99.90;;;;;;5082788;28;20431;-86
2021/07/10 09:00:37;;;;;;;12.00;10.90;;;18.40;99.90;;;;;;5082515;28;20441;-86
2021/07/10 09:03:08;;;;;;;7.83;7.20;;;18.50;99.90;;;;;;5065317;28;20434;-86
2021/07/10 09:05:34;;;;;;;10.23;8.83;;;18.30;99.90;;;;;;5081851;28;20458;-87
2021/07/10 09:08:16;;;;;;;9.10;8.30;;;18.50;99.90;;;;;;5099017;28;20417;-85
2021/07/10 09:10:45;;;;;;;8.10;7.30;;;18.90;99.90;;;;;;5101972;28;20394;-85
2021/07/10 09:13:12;;;;;;;8.30;7.60;;;19.00;99.90;;;;;;5087162;28;20394;-86
2021/07/10 09:15:38;;;;;;;7.70;7.00;;;18.70;99.90;;;;;;5087814;28;20435;-85
2021/07/10 09:18:08;;;;;;;8.70;7.80;;;19.10;99.90;;;;;;5088683;28;20389;-84
2021/07/10 09:20:35;;;;;;;6.80;6.30;;;19.10;99.90;;;;;;5085109;28;20441;-85
2021/07/10 09:23:01;;;;;;;6.83;6.20;;;18.90;99.90;;;;;;5088819;28;20476;-85
2021/07/10 09:25:32;;;;;;;6.50;5.87;;;18.80;99.90;;;;;;5088482;28;20423;-86
2021/07/10 09:28:04;;;;;;;6.30;5.70;;;18.80;99.90;;;;;;5084930;28;20386;-85
2021/07/10 09:30:36;;;;;;;6.17;5.77;;;19.10;99.90;;;;;;5068682;28;20846;-86
2021/07/10 09:33:11;;;;;;;5.80;5.20;;;19.00;99.90;;;;;;5085590;28;20823;-86
2021/07/10 09:35:58;;;;;;;6.30;5.90;;;19.60;99.90;;;;;;5086210;28;20599;-86
2021/07/10 09:38:33;;;;;;;6.67;6.07;;;19.70;99.90;;;;;;5103136;28;20792;-86
2021/07/10 09:41:04;;;;;;;6.10;5.30;;;19.60;99.90;;;;;;5086058;28;20420;-86
2021/07/10 09:43:32;;;;;;;6.27;5.67;;;19.80;99.90;;;;;;5100617;28;20452;-86
2021/07/10 09:46:03;;;;;;;5.80;5.30;;;20.40;99.90;;;;;;5101511;28;20405;-86
2021/07/10 09:48:31;;;;;;;6.53;5.93;;;20.40;99.90;;;;;;5084888;28;20522;-86
2021/07/10 09:51:23;;;;;;;6.13;5.60;;;19.70;99.90;;;;;;5086392;28;20385;-86
2021/07/10 09:54:06;;;;;;;6.37;5.77;;;20.30;99.90;;;;;;5107105;28;20407;-84
2021/07/10 09:56:44;;;;;;;6.03;5.53;;;19.60;99.90;;;;;;5092906;28;20396;-85
2021/07/10 09:59:18;;;;;;;7.83;6.20;;;20.10;99.90;;;;;;5110775;28;20455;-85
2021/07/10 10:01:45;;;;;;;5.83;5.40;;;19.60;99.90;;;;;;5111039;28;20498;-86
2021/07/10 10:04:32;;;;;;;9.00;6.10;;;20.20;99.90;;;;;;5111461;28;20464;-85
2021/07/10 10:07:00;;;;;;;5.17;4.77;;;20.30;99.90;;;;;;5061898;28;20416;-84
2021/07/10 10:09:28;;;;;;;5.37;4.93;;;21.00;99.90;;;;;;5100358;28;20453;-84
2021/07/10 10:11:58;;;;;;;4.40;3.90;;;20.40;99.90;;;;;;5092405;28;20405;-84
2021/07/10 10:14:28;;;;;;;4.93;4.40;;;20.40;99.90;;;;;;5074867;28;20386;-85
2021/07/10 10:16:55;;;;;;;4.67;4.27;;;21.10;99.90;;;;;;5092757;28;20413;-85
2021/07/10 10:19:23;;;;;;;4.27;3.57;;;20.60;99.90;;;;;;5092102;28;20524;-84
2021/07/10 10:21:52;;;;;;;4.57;4.00;;;21.30;99.90;;;;;;5090345;28;20454;-85
2021/07/10 10:24:20;;;;;;;4.90;4.50;;;21.20;99.90;;;;;;5089319;28;20443;-84
2021/07/10 10:26:52;;;;;;;3.50;3.30;;;21.40;99.90;;;;;;5107035;28;20374;-84
2021/07/10 10:29:19;;;;;;;6.90;5.50;;;21.80;99.90;;;;;;5091382;28;20402;-85
2021/07/10 10:31:46;;;;;;;4.47;3.83;;;21.80;99.90;;;;;;5090095;28;20393;-84
2021/07/10 10:34:13;;;;;;;4.60;3.60;;;21.20;99.90;;;;;;5090323;28;20421;-84
2021/07/10 10:36:42;;;;;;;4.50;4.10;;;21.10;99.90;;;;;;5090611;28;20873;-84
2021/07/10 10:39:12;;;;;;;3.70;3.40;;;21.50;99.90;;;;;;5072705;28;20460;-86
2021/07/10 10:41:42;;;;;;;4.60;4.20;;;21.50;99.90;;;;;;5091369;28;20429;-86
2021/07/10 10:44:10;;;;;;;3.53;3.23;;;21.60;99.90;;;;;;5090711;28;20413;-84
2021/07/10 10:46:46;;;;;;;4.10;3.80;;;21.80;99.90;;;;;;5090135;28;20864;-85
2021/07/10 10:49:38;;;;;;;4.27;3.97;;;22.00;99.90;;;;;;5090090;28;20393;-87
2021/07/10 10:52:23;;;;;;;3.80;3.50;;;21.70;99.90;;;;;;5090596;28;20411;-85
2021/07/10 10:54:51;;;;;;;3.87;3.40;;;22.00;99.90;;;;;;5107102;28;20412;-84
2021/07/10 10:57:29;;;;;;;3.60;3.30;;;22.10;99.90;;;;;;5089784;28;20409;-86
2021/07/10 10:59:55;;;;;;;4.30;3.90;;;22.00;99.90;;;;;;5071760;28;20432;-86
2021/07/10 11:02:52;;;;;;;3.23;2.80;;;22.20;99.90;;;;;;5089347;28;20402;-84
2021/07/10 11:05:36;;;;;;;3.40;3.10;;;22.20;99.90;;;;;;5084203;28;20785;-85
2021/07/10 11:08:23;;;;;;;3.70;3.40;;;22.50;99.90;;;;;;5087997;28;20554;-86
2021/07/10 11:11:18;;;;;;;6.90;3.00;;;22.70;99.90;;;;;;5082364;28;20497;-86
2021/07/10 11:13:58;;;;;;;2.93;2.73;;;22.80;99.90;;;;;;5093931;28;20462;-86
2021/07/10 11:16:24;;;;;;;2.90;2.70;;;22.70;99.90;;;;;;5080572;28;20398;-86
2021/07/10 11:18:59;;;;;;;3.70;3.40;;;22.70;99.90;;;;;;5082156;28;20445;-86
2021/07/10 11:21:48;;;;;;;3.53;3.33;;;22.70;99.90;;;;;;5079950;28;20404;-84
2021/07/10 11:24:23;;;;;;;4.57;4.00;;;22.90;99.90;;;;;;5081839;28;20523;-85
2021/07/10 11:27:25;;;;;;;3.27;3.03;;;23.00;99.90;;;;;;5097068;28;20425;-86
2021/07/10 11:30:10;;;;;;;5.60;3.40;;;22.70;99.90;;;;;;5092427;28;20397;-86
2021/07/10 11:32:43;;;;;;;4.07;3.77;;;23.10;99.90;;;;;;5080546;28;20410;-86
2021/07/10 11:35:09;;;;;;;3.83;3.53;;;22.80;99.90;;;;;;5080841;28;20554;-86
2021/07/10 11:37:43;;;;;;;3.30;2.87;;;23.70;99.90;;;;;;5096885;28;20855;-86
2021/07/10 11:40:11;;;;;;;4.20;3.43;;;23.60;99.90;;;;;;5078631;28;20545;-87
2021/07/10 11:42:44;;;;;;;3.73;3.47;;;23.30;99.90;;;;;;5069377;28;20543;-87
2021/07/10 11:45:27;;;;;;;3.20;3.00;;;23.60;99.90;;;;;;5099064;28;20511;-85
2021/07/10 11:47:57;;;;;;;4.07;3.67;;;23.70;99.90;;;;;;5099774;28;20575;-86
2021/07/10 11:50:38;;;;;;;3.00;2.80;;;23.20;99.90;;;;;;5098187;28;20400;-86
2021/07/10 11:53:07;;;;;;;3.60;3.30;;;23.70;99.90;;;;;;5098813;28;20400;-87
2021/07/10 11:55:36;;;;;;;3.50;3.20;;;24.00;99.90;;;;;;5083042;28;20553;-86
2021/07/10 11:58:08;;;;;;;4.50;3.57;;;23.50;99.90;;;;;;5099379;28;20594;-86
2021/07/10 12:00:34;;;;;;;5.90;3.23;;;23.70;99.90;;;;;;5098914;28;20460;-86
2021/07/10 12:03:00;;;;;;;4.37;3.77;;;23.80;99.90;;;;;;5081430;28;20401;-86
2021/07/10 12:05:26;;;;;;;3.00;2.80;;;24.10;99.90;;;;;;5101143;28;20507;-87
2021/07/10 12:07:54;;;;;;;3.47;3.17;;;24.20;99.90;;;;;;5098606;28;20437;-87
2021/07/10 12:10:24;;;;;;;4.13;3.70;;;24.70;99.90;;;;;;5094410;28;20416;-86
2021/07/10 12:12:57;;;;;;;3.77;3.57;;;24.70;99.90;;;;;;5078133;28;20444;-86
2021/07/10 12:15:28;;;;;;;2.97;2.70;;;24.40;99.90;;;;;;5079954;28;20805;-86
2021/07/10 12:17:56;;;;;;;4.00;3.80;;;25.30;99.90;;;;;;5079624;28;20786;-86
2021/07/10 12:20:27;;;;;;;3.17;2.97;;;24.20;99.90;;;;;;5079671;28;20445;-86
2021/07/10 12:23:04;;;;;;;3.20;3.00;;;24.70;99.90;;;;;;5079157;28;20393;-87
2021/07/10 12:25:41;;;;;;;3.30;3.00;;;25.50;99.90;;;;;;5079804;28;20917;-86
2021/07/10 12:28:07;;;;;;;3.30;2.97;;;25.90;99.90;;;;;;5078158;28;20399;-87
2021/07/10 12:30:39;;;;;;;3.90;3.50;;;25.40;99.90;;;;;;5095727;28;20741;-87
2021/07/10 12:33:30;;;;;;;2.97;2.77;;;25.50;99.90;;;;;;5079517;28;20170;-87
2021/07/10 12:36:07;;;;;;;3.07;2.73;;;25.40;99.90;;;;;;5079248;28;20408;-85
2021/07/10 12:38:35;;;;;;;2.87;2.67;;;26.00;99.90;;;;;;5077092;28;20432;-87
2021/07/10 12:41:24;;;;;;;7.03;3.20;;;25.80;99.90;;;;;;5078906;28;20389;-87
2021/07/10 12:43:50;;;;;;;9.50;3.33;;;25.80;99.90;;;;;;5077220;28;20524;-86